Time;durP1;ratioP1;P1;durP2;ratioP2;P2;SDS_P1;SDS_P2;PMS_P1;PMS_P2;Temp;Humidity;BMP_temperature;BMP_pressure;BME280_temperature;BME280_humidity;BME280_pressure;Samples;Min_cycle;Max_cycle;Signal;HPM_P1;HPM_P2
2022/03/28 04:02:24;;;;;;;7.10;3.72;;;5.90;99.90;;;;;;4999548;23;20273;-67
2022/03/28 04:04:50;;;;;;;7.07;3.55;;;5.90;99.90;;;;;;4893582;29;20203;-68
2022/03/28 04:07:17;;;;;;;5.97;3.05;;;5.90;99.90;;;;;;4896898;29;20222;-68
2022/03/28 04:09:44;;;;;;;5.28;2.95;;;5.90;99.90;;;;;;4889153;29;20208;-68
2022/03/28 04:12:11;;;;;;;4.47;3.00;;;5.90;99.90;;;;;;4881567;29;20228;-68
2022/03/28 04:14:38;;;;;;;7.05;4.15;;;5.90;99.90;;;;;;4876571;29;20577;-69
2022/03/28 04:17:05;;;;;;;8.00;3.80;;;5.90;99.90;;;;;;4877855;29;20203;-68
2022/03/28 04:19:33;;;;;;;4.88;3.40;;;5.90;99.90;;;;;;4876847;29;20641;-68
2022/03/28 04:22:00;;;;;;;5.28;3.15;;;5.90;99.90;;;;;;4877576;29;20232;-68
2022/03/28 04:24:27;;;;;;;5.72;3.55;;;5.80;99.90;;;;;;4876393;29;20287;-68
2022/03/28 04:26:53;;;;;;;5.40;2.95;;;5.80;99.90;;;;;;4873221;29;20580;-67
2022/03/28 04:29:20;;;;;;;7.30;3.35;;;5.90;99.90;;;;;;4876095;29;20275;-69
2022/03/28 04:31:47;;;;;;;6.63;3.65;;;5.80;99.90;;;;;;4876982;29;20232;-68
2022/03/28 04:34:13;;;;;;;10.43;3.60;;;5.80;99.90;;;;;;4877233;29;20223;-68
2022/03/28 04:36:41;;;;;;;7.20;3.72;;;5.80;99.90;;;;;;4877534;29;20219;-68
2022/03/28 04:39:08;;;;;;;6.35;3.53;;;5.80;99.90;;;;;;4871653;29;20238;-67
2022/03/28 04:41:35;;;;;;;7.90;3.60;;;5.80;99.90;;;;;;4858764;29;20241;-67
2022/03/28 04:44:01;;;;;;;7.45;3.90;;;5.80;99.90;;;;;;4871209;29;20300;-68
2022/03/28 04:46:28;;;;;;;9.68;4.00;;;5.80;99.90;;;;;;4868367;29;20207;-67
2022/03/28 04:48:55;;;;;;;8.32;3.55;;;5.90;99.90;;;;;;4874271;29;20204;-67
2022/03/28 04:51:21;;;;;;;7.18;4.10;;;5.90;99.90;;;;;;4877055;29;20303;-67
2022/03/28 04:53:49;;;;;;;11.70;5.00;;;5.80;99.90;;;;;;4877295;29;20717;-67
2022/03/28 04:56:16;;;;;;;11.20;4.43;;;5.90;99.90;;;;;;4876284;29;20322;-68
2022/03/28 04:58:43;;;;;;;6.90;4.53;;;5.90;99.90;;;;;;4877127;29;20308;-68
2022/03/28 05:01:10;;;;;;;9.43;3.78;;;5.80;99.90;;;;;;4875967;29;20247;-67
2022/03/28 05:03:36;;;;;;;6.60;3.30;;;5.80;99.90;;;;;;4876417;29;20203;-67
2022/03/28 05:06:04;;;;;;;6.05;3.03;;;5.90;99.90;;;;;;4874820;29;20228;-67
2022/03/28 05:08:31;;;;;;;5.35;3.20;;;5.90;99.90;;;;;;4875048;29;20208;-68
2022/03/28 05:10:59;;;;;;;5.22;3.72;;;5.90;99.90;;;;;;4860665;29;20284;-66
2022/03/28 05:13:27;;;;;;;5.05;3.15;;;5.90;99.90;;;;;;4859410;29;20217;-69
2022/03/28 05:15:53;;;;;;;6.13;4.15;;;5.90;99.90;;;;;;4872051;29;20204;-68
2022/03/28 05:18:20;;;;;;;7.43;3.47;;;5.90;99.90;;;;;;4877517;29;20224;-69
2022/03/28 05:20:46;;;;;;;5.25;3.03;;;5.80;99.90;;;;;;4876878;29;20243;-67
2022/03/28 05:23:13;;;;;;;5.28;3.38;;;5.80;99.90;;;;;;4876577;29;20673;-68
2022/03/28 05:25:40;;;;;;;4.40;2.45;;;5.80;99.90;;;;;;4877425;29;20264;-68
2022/03/28 05:28:09;;;;;;;7.13;3.95;;;5.80;99.90;;;;;;4876897;29;20240;-67
2022/03/28 05:30:36;;;;;;;8.02;4.47;;;5.80;99.90;;;;;;4876333;29;20236;-67
2022/03/28 05:33:03;;;;;;;9.75;3.75;;;5.80;99.90;;;;;;4876989;29;20227;-66
2022/03/28 05:35:29;;;;;;;4.45;2.78;;;5.90;99.90;;;;;;4876531;29;20276;-66
2022/03/28 05:37:56;;;;;;;9.10;3.95;;;5.80;99.90;;;;;;4876609;29;20303;-67
2022/03/28 05:40:23;;;;;;;8.15;3.30;;;5.80;99.90;;;;;;4876172;29;20216;-66
2022/03/28 05:42:50;;;;;;;6.35;3.17;;;5.80;99.90;;;;;;4876698;29;20275;-68
2022/03/28 05:45:18;;;;;;;6.53;3.78;;;5.90;99.90;;;;;;4876500;29;20291;-67
2022/03/28 05:47:44;;;;;;;10.45;6.40;;;5.90;99.90;;;;;;4877776;29;20215;-68
2022/03/28 05:50:11;;;;;;;14.57;5.30;;;5.90;99.90;;;;;;4879692;29;20203;-67
2022/03/28 05:52:38;;;;;;;10.40;4.82;;;5.90;99.90;;;;;;4880720;29;20212;-67
2022/03/28 05:55:06;;;;;;;11.75;4.75;;;5.90;99.90;;;;;;4880526;29;20267;-68
2022/03/28 05:57:33;;;;;;;7.85;4.60;;;5.90;99.90;;;;;;4880774;29;20243;-66
2022/03/28 05:59:59;;;;;;;14.50;5.10;;;5.90;99.90;;;;;;4879740;29;20232;-67
2022/03/28 06:02:27;;;;;;;8.32;3.95;;;5.90;99.90;;;;;;4877796;29;20296;-66
2022/03/28 06:04:54;;;;;;;18.67;6.25;;;5.90;99.90;;;;;;4875740;29;20207;-68
2022/03/28 06:07:21;;;;;;;6.75;3.83;;;5.90;99.90;;;;;;4879753;29;20626;-67
2022/03/28 06:09:47;;;;;;;9.52;3.80;;;5.90;99.90;;;;;;4879615;29;20208;-67
2022/03/28 06:12:15;;;;;;;6.00;3.42;;;5.90;99.90;;;;;;4880518;29;20295;-67
2022/03/28 06:14:41;;;;;;;9.60;4.13;;;6.00;99.90;;;;;;4880022;29;20227;-66
2022/03/28 06:17:08;;;;;;;14.27;4.03;;;6.00;99.90;;;;;;4879608;29;20208;-69
2022/03/28 06:19:36;;;;;;;8.88;4.35;;;6.00;99.90;;;;;;4879049;29;20235;-70
2022/03/28 06:22:03;;;;;;;10.45;6.32;;;6.10;99.90;;;;;;4878678;29;20292;-69
2022/03/28 06:24:29;;;;;;;4.35;3.38;;;6.10;99.90;;;;;;4873165;29;20201;-69
2022/03/28 06:26:56;;;;;;;8.77;5.35;;;6.10;99.90;;;;;;4871528;29;20695;-68
2022/03/28 06:29:23;;;;;;;8.70;4.72;;;6.10;99.90;;;;;;4873144;29;20359;-68
2022/03/28 06:31:49;;;;;;;5.85;4.28;;;6.10;99.90;;;;;;4867753;29;20307;-67
2022/03/28 06:34:16;;;;;;;6.82;4.18;;;6.20;99.90;;;;;;4877323;29;20733;-68
2022/03/28 06:36:45;;;;;;;8.68;4.40;;;6.20;99.90;;;;;;4878077;29;20259;-68
2022/03/28 06:39:13;;;;;;;9.90;3.50;;;6.20;99.90;;;;;;4877150;29;20231;-69
2022/03/28 06:41:40;;;;;;;5.80;3.25;;;6.20;99.90;;;;;;4866692;29;20268;-67
2022/03/28 06:44:08;;;;;;;8.63;7.13;;;6.30;99.90;;;;;;4878519;29;20279;-67
2022/03/28 06:46:34;;;;;;;7.80;4.53;;;6.30;99.90;;;;;;4879051;29;20212;-69
2022/03/28 06:49:01;;;;;;;10.98;5.25;;;6.30;99.90;;;;;;4872985;29;20209;-68
2022/03/28 06:51:28;;;;;;;10.02;5.30;;;6.30;99.90;;;;;;4876526;29;20232;-68
2022/03/28 06:53:56;;;;;;;7.20;3.83;;;6.20;99.90;;;;;;4877755;29;20207;-68
2022/03/28 06:56:22;;;;;;;5.55;3.67;;;6.30;99.90;;;;;;4879115;29;20354;-68
2022/03/28 06:58:49;;;;;;;8.05;4.00;;;6.30;99.90;;;;;;4877066;29;20326;-68
2022/03/28 07:01:16;;;;;;;8.48;3.40;;;6.30;99.90;;;;;;4873102;29;20291;-67
2022/03/28 07:03:43;;;;;;;6.60;4.30;;;6.30;99.90;;;;;;4878260;29;20204;-66
2022/03/28 07:06:09;;;;;;;4.15;3.83;;;6.30;99.90;;;;;;4873249;29;20211;-67
2022/03/28 07:08:36;;;;;;;5.97;4.10;;;6.40;99.90;;;;;;4883866;29;20729;-68
2022/03/28 07:11:04;;;;;;;7.38;3.58;;;6.40;99.90;;;;;;4878429;29;20379;-68
2022/03/28 07:13:31;;;;;;;8.05;3.50;;;6.40;99.90;;;;;;4878927;29;20204;-68
2022/03/28 07:15:58;;;;;;;9.82;5.03;;;6.40;99.90;;;;;;4879006;29;20283;-68
2022/03/28 07:18:25;;;;;;;9.02;5.10;;;6.30;99.90;;;;;;4881301;29;20207;-69
2022/03/28 07:20:52;;;;;;;10.40;5.10;;;6.40;99.90;;;;;;4879246;29;20235;-67
2022/03/28 07:23:19;;;;;;;12.25;6.68;;;6.40;99.90;;;;;;4875534;29;20209;-68
2022/03/28 07:25:46;;;;;;;13.70;8.07;;;6.40;99.90;;;;;;4869105;29;20311;-67
2022/03/28 07:28:17;;;;;;;15.38;7.00;;;6.40;99.90;;;;;;4878397;29;20208;-70
2022/03/28 07:30:44;;;;;;;16.30;8.40;;;6.40;99.90;;;;;;4859141;29;20240;-67
2022/03/28 07:33:11;;;;;;;17.65;9.48;;;6.40;99.90;;;;;;4869975;29;20204;-68
2022/03/28 07:35:40;;;;;;;19.08;9.07;;;6.40;99.90;;;;;;4878392;29;20208;-66
2022/03/28 07:38:10;;;;;;;16.20;9.95;;;6.50;99.90;;;;;;4877413;29;20204;-67
2022/03/28 07:40:38;;;;;;;18.58;9.20;;;6.50;99.90;;;;;;4872974;29;20248;-68
2022/03/28 07:43:05;;;;;;;15.77;8.77;;;6.50;99.90;;;;;;4865186;29;20666;-67
2022/03/28 07:45:33;;;;;;;13.93;9.40;;;6.50;99.90;;;;;;4875968;29;20208;-68
2022/03/28 07:47:59;;;;;;;15.27;8.32;;;6.60;99.90;;;;;;4876129;29;20741;-68
2022/03/28 07:50:27;;;;;;;17.10;8.73;;;6.60;99.90;;;;;;4876246;29;20204;-68
2022/03/28 07:52:53;;;;;;;14.60;10.02;;;6.60;99.90;;;;;;4875730;29;20214;-68
2022/03/28 07:55:20;;;;;;;12.52;8.05;;;6.50;99.90;;;;;;4878156;29;20215;-67
2022/03/28 07:57:47;;;;;;;13.00;8.23;;;6.50;99.90;;;;;;4861489;29;20220;-67
2022/03/28 08:00:16;;;;;;;16.08;8.60;;;6.60;99.90;;;;;;4862597;29;20655;-68
2022/03/28 08:02:44;;;;;;;12.13;7.88;;;6.60;99.90;;;;;;4877409;29;20877;-68
2022/03/28 08:05:12;;;;;;;15.23;8.90;;;6.60;99.90;;;;;;4877202;29;20216;-69
2022/03/28 08:07:39;;;;;;;16.65;8.60;;;6.70;99.90;;;;;;4875819;29;20304;-67
2022/03/28 08:10:07;;;;;;;14.68;7.90;;;6.70;99.90;;;;;;4878079;29;20284;-68
2022/03/28 08:12:36;;;;;;;10.25;7.00;;;6.70;99.90;;;;;;4877539;29;20288;-67
2022/03/28 08:15:03;;;;;;;17.90;8.55;;;6.70;99.90;;;;;;4874912;29;20219;-68
2022/03/28 08:17:29;;;;;;;18.08;7.95;;;6.80;99.90;;;;;;4877349;29;20210;-69
2022/03/28 08:19:57;;;;;;;14.02;9.35;;;6.80;99.90;;;;;;4876199;29;20239;-68
2022/03/28 08:22:24;;;;;;;18.98;8.88;;;6.90;99.90;;;;;;4871816;29;20228;-67
2022/03/28 08:24:51;;;;;;;16.38;8.85;;;6.90;99.90;;;;;;4875986;29;20326;-69
2022/03/28 08:27:17;;;;;;;20.77;10.73;;;7.00;99.90;;;;;;4876718;29;20609;-69
2022/03/28 08:29:44;;;;;;;17.90;9.10;;;7.00;99.90;;;;;;4872737;29;20272;-68
2022/03/28 08:32:10;;;;;;;15.90;9.30;;;7.10;99.90;;;;;;4873280;29;20220;-68
2022/03/28 08:34:37;;;;;;;19.77;8.60;;;7.20;99.90;;;;;;4868679;29;20204;-67
2022/03/28 08:37:05;;;;;;;15.88;8.63;;;7.10;99.90;;;;;;4872102;29;20221;-68
2022/03/28 08:39:32;;;;;;;16.75;9.32;;;7.10;99.90;;;;;;4872003;29;20235;-69
2022/03/28 08:41:59;;;;;;;15.07;7.95;;;7.20;99.90;;;;;;4871376;29;20236;-68
2022/03/28 08:44:27;;;;;;;16.50;9.10;;;7.20;99.90;;;;;;4876481;29;20212;-70
2022/03/28 08:46:55;;;;;;;14.95;8.30;;;7.20;99.90;;;;;;4871977;29;20205;-68
2022/03/28 08:49:22;;;;;;;13.38;8.20;;;7.30;99.90;;;;;;4873636;29;20215;-68
2022/03/28 08:51:49;;;;;;;15.98;8.63;;;7.30;99.90;;;;;;4875603;29;20227;-68
2022/03/28 08:54:17;;;;;;;16.10;7.80;;;7.30;99.90;;;;;;4876670;29;20730;-68
2022/03/28 08:56:44;;;;;;;18.25;9.35;;;7.40;99.90;;;;;;4876809;29;20272;-68
2022/03/28 08:59:11;;;;;;;20.48;10.65;;;7.40;99.90;;;;;;4874613;29;20228;-68
2022/03/28 09:01:38;;;;;;;18.55;10.68;;;7.30;99.90;;;;;;4875769;29;20307;-69
2022/03/28 09:04:10;;;;;;;19.73;10.35;;;7.40;99.90;;;;;;4876437;29;20208;-69
2022/03/28 09:06:38;;;;;;;19.23;11.77;;;7.50;99.90;;;;;;4873632;29;20238;-68
2022/03/28 09:09:17;;;;;;;18.55;11.85;;;7.50;99.90;;;;;;4875007;29;20280;-68
2022/03/28 09:11:46;;;;;;;24.13;11.68;;;7.60;99.90;;;;;;4868812;29;20237;-69
2022/03/28 09:14:23;;;;;;;18.38;10.35;;;7.60;99.90;;;;;;4864991;29;20228;-69
2022/03/28 09:17:02;;;;;;;21.25;11.10;;;7.70;99.90;;;;;;4874201;29;20263;-68
2022/03/28 09:19:43;;;;;;;15.50;7.88;;;7.80;99.90;;;;;;4875756;29;20224;-68
2022/03/28 09:22:11;;;;;;;13.85;8.02;;;7.80;99.90;;;;;;4874570;29;20232;-69
2022/03/28 09:24:39;;;;;;;12.30;7.57;;;7.90;99.90;;;;;;4874765;29;20299;-67
2022/03/28 09:27:17;;;;;;;9.60;5.85;;;7.90;99.90;;;;;;4869246;29;20208;-68
2022/03/28 09:29:57;;;;;;;9.40;6.10;;;8.00;99.90;;;;;;4859691;29;20213;-69
2022/03/28 09:32:25;;;;;;;10.40;6.18;;;8.10;99.90;;;;;;4868454;29;20673;-69
2022/03/28 09:35:10;;;;;;;8.48;6.10;;;8.20;99.90;;;;;;4876366;29;20214;-69
2022/03/28 09:37:57;;;;;;;10.73;7.47;;;8.20;99.90;;;;;;4875647;29;20287;-68
2022/03/28 09:40:37;;;;;;;10.07;7.07;;;8.40;99.90;;;;;;4876593;29;20232;-67
2022/03/28 09:43:06;;;;;;;14.88;8.57;;;8.50;99.90;;;;;;4871101;29;20215;-68
2022/03/28 09:45:37;;;;;;;11.80;8.80;;;8.60;99.90;;;;;;4874561;29;20244;-68
2022/03/28 09:48:06;;;;;;;16.35;11.30;;;8.60;99.90;;;;;;4865535;29;20240;-68
2022/03/28 09:50:39;;;;;;;13.93;8.48;;;8.70;99.90;;;;;;4875234;29;20697;-68
2022/03/28 09:53:20;;;;;;;8.95;6.38;;;8.70;99.90;;;;;;4873853;29;20212;-69
2022/03/28 09:55:54;;;;;;;9.52;6.43;;;8.80;99.90;;;;;;4873118;29;20211;-69
2022/03/28 09:58:39;;;;;;;11.90;8.15;;;8.70;99.90;;;;;;4875014;29;20892;-68
2022/03/28 10:01:08;;;;;;;8.05;6.35;;;8.70;99.90;;;;;;4873411;29;20584;-68
2022/03/28 10:03:37;;;;;;;7.70;6.65;;;8.80;99.90;;;;;;4875064;29;20227;-68
2022/03/28 10:06:06;;;;;;;8.23;5.90;;;8.90;99.90;;;;;;4875910;29;20256;-68
2022/03/28 10:08:33;;;;;;;7.32;6.13;;;8.90;99.90;;;;;;4874585;29;20303;-68
2022/03/28 10:11:02;;;;;;;4.15;3.85;;;8.90;99.90;;;;;;4875759;29;20295;-69
2022/03/28 10:13:30;;;;;;;3.72;3.40;;;8.90;99.90;;;;;;4875222;29;20211;-68
2022/03/28 10:15:56;;;;;;;5.25;4.43;;;9.00;99.90;;;;;;4873229;29;20212;-68
2022/03/28 10:18:23;;;;;;;5.13;4.53;;;9.00;99.90;;;;;;4871738;29;20204;-69
2022/03/28 10:20:54;;;;;;;5.60;5.10;;;9.00;99.90;;;;;;4875285;29;20236;-68
2022/03/28 10:23:24;;;;;;;6.18;4.90;;;9.10;99.90;;;;;;4862816;29;20200;-69
2022/03/28 10:25:53;;;;;;;5.13;4.20;;;9.20;99.90;;;;;;4875517;29;20216;-68
2022/03/28 10:28:21;;;;;;;4.25;3.85;;;9.20;99.90;;;;;;4875688;29;20291;-67
2022/03/28 10:30:48;;;;;;;3.60;3.33;;;9.20;99.90;;;;;;4875337;29;20224;-68
2022/03/28 10:33:18;;;;;;;3.08;2.45;;;9.30;99.90;;;;;;4874394;29;20212;-68
2022/03/28 10:35:59;;;;;;;3.38;3.17;;;9.40;99.90;;;;;;4872717;29;20209;-68
2022/03/28 10:38:26;;;;;;;2.90;2.65;;;9.50;99.90;;;;;;4872326;29;20211;-68
2022/03/28 10:40:55;;;;;;;2.63;2.42;;;9.60;99.90;;;;;;4878343;29;20302;-68
2022/03/28 10:43:25;;;;;;;2.13;1.90;;;9.70;99.90;;;;;;4878847;29;20212;-68
2022/03/28 10:45:55;;;;;;;2.85;2.72;;;9.70;99.90;;;;;;4878004;29;20207;-68
2022/03/28 10:48:39;;;;;;;2.80;2.70;;;9.80;99.90;;;;;;4878124;29;20201;-69
2022/03/28 10:51:08;;;;;;;2.58;2.50;;;9.80;99.90;;;;;;4874371;29;20259;-69
2022/03/28 10:53:40;;;;;;;2.40;2.25;;;10.00;99.90;;;;;;4874899;29;20938;-67
2022/03/28 10:56:11;;;;;;;3.33;3.13;;;10.10;99.90;;;;;;4874680;29;20351;-67
2022/03/28 10:58:42;;;;;;;3.20;2.97;;;10.20;99.90;;;;;;4876170;29;20208;-66
2022/03/28 11:01:34;;;;;;;3.70;3.40;;;10.20;99.90;;;;;;4866121;29;20237;-66
2022/03/28 11:04:07;;;;;;;6.38;5.85;;;10.20;99.90;;;;;;4860812;29;20220;-67
2022/03/28 11:07:00;;;;;;;6.63;5.95;;;10.30;99.90;;;;;;4874817;29;20643;-68
2022/03/28 11:09:44;;;;;;;3.10;3.00;;;10.20;99.90;;;;;;4877077;29;20272;-67
2022/03/28 11:12:13;;;;;;;4.88;4.65;;;10.10;99.90;;;;;;4878637;29;20228;-67
2022/03/28 11:14:53;;;;;;;4.93;4.70;;;10.10;99.90;;;;;;4878514;29;20219;-67
2022/03/28 11:17:22;;;;;;;5.88;5.47;;;10.20;99.90;;;;;;4879101;29;20220;-68
2022/03/28 11:20:11;;;;;;;3.72;3.50;;;10.40;99.90;;;;;;4878217;29;20825;-67
2022/03/28 11:22:49;;;;;;;4.18;3.88;;;10.60;99.90;;;;;;4868636;29;20244;-67
2022/03/28 11:25:33;;;;;;;3.10;2.92;;;10.50;99.90;;;;;;4878695;29;20681;-66
2022/03/28 11:28:06;;;;;;;3.05;2.85;;;10.50;99.90;;;;;;4861773;29;20216;-67
2022/03/28 11:30:36;;;;;;;3.47;3.28;;;10.40;99.90;;;;;;4864525;29;20688;-66
2022/03/28 11:33:08;;;;;;;2.92;2.83;;;10.50;99.90;;;;;;4880526;29;20202;-67
2022/03/28 11:35:37;;;;;;;3.05;2.85;;;10.40;99.90;;;;;;4879004;29;20621;-67
2022/03/28 11:38:04;;;;;;;2.92;2.72;;;10.40;99.90;;;;;;4878005;29;20621;-68
2022/03/28 11:40:37;;;;;;;3.70;3.50;;;10.40;99.90;;;;;;4877566;29;20729;-68
2022/03/28 11:43:04;;;;;;;3.08;2.97;;;10.40;99.90;;;;;;4871806;29;20205;-69
2022/03/28 11:45:31;;;;;;;3.40;3.25;;;10.40;99.90;;;;;;4876422;29;20269;-68
2022/03/28 11:47:59;;;;;;;3.30;3.20;;;10.40;99.90;;;;;;4877983;29;20219;-67
2022/03/28 11:50:30;;;;;;;3.97;3.67;;;10.50;99.90;;;;;;4877685;29;20303;-67
2022/03/28 11:52:57;;;;;;;3.80;3.60;;;10.60;99.90;;;;;;4877903;29;20208;-67
2022/03/28 11:55:26;;;;;;;3.38;3.17;;;10.60;99.90;;;;;;4878027;29;20207;-68
2022/03/28 12:00:40;;;;;;;4.20;3.88;;;10.70;99.90;;;;;;4875957;29;20234;-68
2022/03/28 12:03:10;;;;;;;2.97;2.88;;;10.60;99.90;;;;;;4878302;29;20215;-67
2022/03/28 12:05:40;;;;;;;2.92;2.72;;;10.60;99.90;;;;;;4878003;29;20258;-69
2022/03/28 12:08:12;;;;;;;3.50;3.30;;;10.50;99.90;;;;;;4877318;29;20308;-67
2022/03/28 12:10:41;;;;;;;3.58;3.38;;;10.50;99.90;;;;;;4873127;29;20228;-67
2022/03/28 12:13:09;;;;;;;3.97;3.65;;;10.50;99.90;;;;;;4878225;29;20279;-67
2022/03/28 12:15:38;;;;;;;3.58;3.20;;;10.50;99.90;;;;;;4874931;29;20213;-68
2022/03/28 12:18:08;;;;;;;4.50;4.22;;;10.50;99.90;;;;;;4877645;29;20207;-67
2022/03/28 12:20:36;;;;;;;3.10;3.00;;;10.40;99.90;;;;;;4877143;29;20240;-65
2022/03/28 12:23:05;;;;;;;3.70;3.50;;;10.50;99.90;;;;;;4877100;29;20216;-67
2022/03/28 12:25:35;;;;;;;3.42;3.22;;;10.60;99.90;;;;;;4877776;29;20612;-67
2022/03/28 12:28:04;;;;;;;3.95;2.97;;;10.60;99.90;;;;;;4877861;29;20207;-68
2022/03/28 12:30:33;;;;;;;3.53;3.42;;;10.70;99.90;;;;;;4876579;29;20208;-67
2022/03/28 12:33:10;;;;;;;3.80;3.53;;;10.80;99.90;;;;;;4876975;29;20245;-67
2022/03/28 12:35:40;;;;;;;3.75;3.55;;;10.90;99.90;;;;;;4877656;29;20204;-67
2022/03/28 12:38:07;;;;;;;3.80;3.70;;;10.90;99.90;;;;;;4877211;29;20223;-68
2022/03/28 12:40:35;;;;;;;4.40;4.00;;;10.90;99.90;;;;;;4876608;29;20764;-67
2022/03/28 12:43:04;;;;;;;4.50;4.20;;;11.00;99.90;;;;;;4877406;29;20319;-65
2022/03/28 12:45:32;;;;;;;4.18;3.88;;;11.00;99.90;;;;;;4876561;29;20223;-66
2022/03/28 12:48:01;;;;;;;5.03;4.70;;;11.10;99.90;;;;;;4877015;29;20215;-67
2022/03/28 12:50:30;;;;;;;5.43;4.63;;;11.10;99.90;;;;;;4876109;29;20235;-66
2022/03/28 12:53:14;;;;;;;4.40;3.80;;;11.10;99.90;;;;;;4877069;29;20524;-66
2022/03/28 12:55:43;;;;;;;6.80;4.50;;;11.20;99.90;;;;;;4869518;29;20200;-67
2022/03/28 12:58:11;;;;;;;5.55;5.05;;;11.20;99.90;;;;;;4875974;29;20285;-66
2022/03/28 13:00:38;;;;;;;5.38;4.88;;;11.20;99.90;;;;;;4875792;29;20238;-66
2022/03/28 13:03:05;;;;;;;7.57;5.47;;;11.20;99.90;;;;;;4876346;29;20196;-67
2022/03/28 13:05:35;;;;;;;5.20;4.90;;;11.20;99.90;;;;;;4877109;29;20268;-66
2022/03/28 13:08:06;;;;;;;5.53;5.03;;;11.20;99.90;;;;;;4876202;29;20235;-67
2022/03/28 13:10:35;;;;;;;5.55;5.05;;;11.30;99.90;;;;;;4876652;29;20216;-67
2022/03/28 13:13:02;;;;;;;5.85;4.43;;;11.20;99.90;;;;;;4874623;29;20210;-67
2022/03/28 13:15:32;;;;;;;5.50;5.00;;;11.30;99.90;;;;;;4876826;29;20230;-67
2022/03/28 13:18:05;;;;;;;6.40;5.45;;;11.40;99.90;;;;;;4877178;29;20216;-66
2022/03/28 13:20:34;;;;;;;5.57;5.07;;;11.50;99.90;;;;;;4876750;29;20229;-67
2022/03/28 13:23:02;;;;;;;13.75;5.82;;;11.50;99.90;;;;;;4876281;29;20733;-67
2022/03/28 13:25:29;;;;;;;6.05;5.53;;;11.50;99.90;;;;;;4876930;29;20331;-67
2022/03/28 13:28:04;;;;;;;4.78;4.10;;;11.50;99.90;;;;;;4877040;29;20267;-66
2022/03/28 13:30:32;;;;;;;4.60;4.20;;;11.50;99.90;;;;;;4875761;29;20610;-66
2022/03/28 13:33:00;;;;;;;5.55;5.15;;;11.50;99.90;;;;;;4877659;29;20208;-67
2022/03/28 13:35:27;;;;;;;6.38;5.43;;;11.50;99.90;;;;;;4876667;29;20215;-67
2022/03/28 13:37:58;;;;;;;6.75;5.40;;;11.50;99.90;;;;;;4876029;29;20702;-66
2022/03/28 13:40:25;;;;;;;5.28;4.97;;;11.50;99.90;;;;;;4876320;29;20267;-66
2022/03/28 13:42:52;;;;;;;6.70;6.18;;;11.60;99.90;;;;;;4875995;29;20651;-66
2022/03/28 13:45:19;;;;;;;5.10;4.63;;;11.60;99.90;;;;;;4876755;29;20204;-66
2022/03/28 13:47:46;;;;;;;5.20;4.70;;;11.60;99.90;;;;;;4875970;29;20300;-65
2022/03/28 13:50:13;;;;;;;6.53;5.90;;;11.50;99.90;;;;;;4876182;29;20204;-66
2022/03/28 13:52:40;;;;;;;5.45;5.07;;;11.60;99.90;;;;;;4876219;29;20232;-66
2022/03/28 13:55:09;;;;;;;5.30;4.90;;;11.60;99.90;;;;;;4876620;29;20212;-67
2022/03/28 13:57:35;;;;;;;5.50;5.20;;;11.70;99.90;;;;;;4876558;29;20220;-66
2022/03/28 14:00:03;;;;;;;4.95;4.57;;;11.70;99.90;;;;;;4875587;29;20279;-66
2022/03/28 14:02:30;;;;;;;4.40;4.10;;;11.70;99.90;;;;;;4875970;29;20513;-65
2022/03/28 14:04:57;;;;;;;5.57;5.07;;;11.70;99.90;;;;;;4876295;29;20226;-66
2022/03/28 14:07:24;;;;;;;6.10;5.57;;;11.70;99.90;;;;;;4876283;29;20215;-66
2022/03/28 14:09:51;;;;;;;4.85;4.60;;;11.70;99.90;;;;;;4880552;29;20275;-67
2022/03/28 14:12:19;;;;;;;5.47;5.07;;;11.80;99.90;;;;;;4880686;29;20272;-67
2022/03/28 14:14:45;;;;;;;6.00;5.50;;;11.80;99.90;;;;;;4878766;29;20657;-66
2022/03/28 14:17:13;;;;;;;5.97;5.05;;;11.80;99.90;;;;;;4879548;29;20476;-67
2022/03/28 14:19:41;;;;;;;5.32;4.90;;;11.70;99.90;;;;;;4874255;29;20299;-68
2022/03/28 14:22:08;;;;;;;5.95;5.53;;;11.70;99.90;;;;;;4887862;29;20304;-65
2022/03/28 14:24:36;;;;;;;5.88;5.38;;;11.80;99.90;;;;;;4883233;29;20566;-66
2022/03/28 14:27:03;;;;;;;7.72;5.13;;;11.90;99.90;;;;;;4882614;29;20208;-66
2022/03/28 14:29:31;;;;;;;5.72;5.07;;;11.90;99.90;;;;;;4886129;29;20220;-66
2022/03/28 14:31:58;;;;;;;5.75;5.05;;;11.80;99.90;;;;;;4885991;29;20740;-67
2022/03/28 14:34:25;;;;;;;5.93;5.53;;;11.80;99.90;;;;;;4885779;29;20211;-66
2022/03/28 14:36:51;;;;;;;6.70;6.20;;;11.70;99.90;;;;;;4886366;29;20307;-67
2022/03/28 14:39:19;;;;;;;4.72;4.43;;;11.70;99.90;;;;;;4880896;29;20269;-67
2022/03/28 14:41:45;;;;;;;7.25;5.80;;;11.60;99.90;;;;;;4881088;29;20232;-66
2022/03/28 14:44:12;;;;;;;5.50;5.10;;;11.60;99.90;;;;;;4880800;29;20362;-66
2022/03/28 14:49:24;;;;;;;4.65;4.35;;;11.60;99.90;;;;;;4881340;29;20214;-66
2022/03/28 14:51:51;;;;;;;5.43;5.13;;;11.60;99.90;;;;;;4884157;29;20371;-67
2022/03/28 14:54:18;;;;;;;5.20;4.80;;;11.70;99.90;;;;;;4878475;29;20260;-66
2022/03/28 14:56:45;;;;;;;5.75;4.88;;;11.70;99.90;;;;;;4879273;29;20717;-67
2022/03/28 14:59:12;;;;;;;6.13;4.60;;;11.80;99.90;;;;;;4878954;29;20223;-66
2022/03/28 15:01:42;;;;;;;5.53;5.03;;;11.90;99.90;;;;;;4877859;29;20705;-67
2022/03/28 15:04:08;;;;;;;6.60;4.83;;;12.00;99.90;;;;;;4879345;29;20810;-66
2022/03/28 15:06:37;;;;;;;7.00;5.40;;;12.10;99.90;;;;;;4879193;29;20500;-66
2022/03/28 15:09:03;;;;;;;9.02;5.95;;;12.00;99.90;;;;;;4878318;29;20749;-67
2022/03/28 15:11:30;;;;;;;6.35;5.75;;;12.00;99.90;;;;;;4878419;29;20228;-67
2022/03/28 15:13:57;;;;;;;8.65;6.90;;;12.00;99.90;;;;;;4879099;29;20212;-70
2022/03/28 15:16:24;;;;;;;13.93;8.10;;;12.10;99.90;;;;;;4879502;29;20259;-68
2022/03/28 15:18:52;;;;;;;8.10;7.18;;;12.10;99.90;;;;;;4879259;29;20464;-67
2022/03/28 15:21:19;;;;;;;8.35;7.50;;;12.10;99.90;;;;;;4874059;29;20288;-67
2022/03/28 15:23:45;;;;;;;7.90;6.97;;;11.70;99.90;;;;;;4871464;29;20250;-67
2022/03/28 15:26:12;;;;;;;10.63;6.82;;;11.60;99.90;;;;;;4879055;29;20212;-68
2022/03/28 15:28:39;;;;;;;7.32;6.63;;;11.60;99.90;;;;;;4878265;29;20212;-65
2022/03/28 15:31:24;;;;;;;9.55;7.60;;;11.50;99.90;;;;;;4879337;29;20299;-67
2022/03/28 15:33:53;;;;;;;9.45;6.60;;;11.40;99.90;;;;;;4880799;29;20219;-67
2022/03/28 15:36:20;;;;;;;9.27;7.05;;;11.40;99.90;;;;;;4878695;29;20212;-66
2022/03/28 15:38:47;;;;;;;8.35;6.88;;;11.30;99.90;;;;;;4878769;29;20215;-67
2022/03/28 15:41:14;;;;;;;10.00;7.57;;;11.30;99.90;;;;;;4885774;29;20227;-68
2022/03/28 15:43:41;;;;;;;9.55;7.35;;;11.30;99.90;;;;;;4877066;29;20204;-68
2022/03/28 15:46:08;;;;;;;5.78;5.13;;;11.20;99.90;;;;;;4877119;29;20251;-66
2022/03/28 15:48:36;;;;;;;10.43;6.45;;;11.10;99.90;;;;;;4875392;29;20221;-67
2022/03/28 15:51:04;;;;;;;12.50;7.00;;;11.00;99.90;;;;;;4875044;29;20228;-67
2022/03/28 15:53:32;;;;;;;12.48;6.68;;;11.00;99.90;;;;;;4877816;29;20208;-69
2022/03/28 15:55:59;;;;;;;14.07;7.00;;;11.00;99.90;;;;;;4877115;29;20219;-68
2022/03/28 15:58:25;;;;;;;7.65;6.40;;;10.90;99.90;;;;;;4892297;29;20276;-68
2022/03/28 16:00:52;;;;;;;7.60;6.57;;;10.80;99.90;;;;;;4867519;29;20303;-67
2022/03/28 16:03:19;;;;;;;10.25;6.40;;;10.80;99.90;;;;;;4874629;29;20255;-68
2022/03/28 16:05:46;;;;;;;11.00;7.30;;;10.70;99.90;;;;;;4872064;29;20273;-67
2022/03/28 16:08:14;;;;;;;10.55;7.15;;;10.70;99.90;;;;;;4873802;29;20740;-68
2022/03/28 16:10:41;;;;;;;9.52;6.75;;;10.70;99.90;;;;;;4874054;29;20601;-67
2022/03/28 16:13:07;;;;;;;9.27;7.53;;;10.70;99.90;;;;;;4877664;29;20227;-67
2022/03/28 16:15:34;;;;;;;8.23;7.32;;;10.50;99.90;;;;;;4874590;29;20216;-66
2022/03/28 16:18:01;;;;;;;8.75;7.93;;;10.40;99.90;;;;;;4876996;29;20268;-68
2022/03/28 16:20:28;;;;;;;10.82;7.75;;;10.40;99.90;;;;;;4868714;29;20211;-66
2022/03/28 16:22:54;;;;;;;9.40;7.45;;;10.40;99.90;;;;;;4876759;29;20220;-66
2022/03/28 16:25:23;;;;;;;11.32;7.05;;;10.30;99.90;;;;;;4874553;29;20212;-67
2022/03/28 16:27:51;;;;;;;10.38;8.25;;;10.20;99.90;;;;;;4871464;29;20264;-69
2022/03/28 16:30:17;;;;;;;11.23;7.68;;;10.10;99.90;;;;;;4873059;29;20577;-68
2022/03/28 16:32:44;;;;;;;20.05;8.75;;;10.10;99.90;;;;;;4872535;29;20212;-66
2022/03/28 16:35:11;;;;;;;10.85;7.05;;;10.10;99.90;;;;;;4866775;29;20303;-66
2022/03/28 16:37:38;;;;;;;9.50;6.95;;;10.00;99.90;;;;;;4871360;29;20301;-67
2022/03/28 16:40:06;;;;;;;8.75;6.95;;;9.90;99.90;;;;;;4871089;29;20257;-67
2022/03/28 16:42:34;;;;;;;15.50;9.20;;;9.90;99.90;;;;;;4876737;29;20239;-67
2022/03/28 16:45:01;;;;;;;8.52;6.78;;;9.90;99.90;;;;;;4876010;29;20226;-68
2022/03/28 16:47:28;;;;;;;13.70;7.80;;;9.90;99.90;;;;;;4859705;29;20216;-67
2022/03/28 16:49:58;;;;;;;8.98;7.25;;;9.90;99.90;;;;;;4873246;29;20268;-67
2022/03/28 16:52:25;;;;;;;14.60;9.55;;;9.90;99.90;;;;;;4864612;29;20714;-67
2022/03/28 16:54:51;;;;;;;11.45;8.13;;;9.90;99.90;;;;;;4875559;29;20248;-68
2022/03/28 16:57:20;;;;;;;10.77;7.38;;;9.90;99.90;;;;;;4873888;29;20275;-68
2022/03/28 16:59:49;;;;;;;9.00;7.15;;;9.90;99.90;;;;;;4875225;29;20790;-67
2022/03/28 17:02:16;;;;;;;8.80;7.60;;;9.80;99.90;;;;;;4874517;29;20243;-67